地図

経路データ

SID SEASON NUMBER BASIN SUBBASIN NAME ISO_TIME NATURE LAT LON WMO_WIND WMO_PRES WMO_AGENCY TRACK_TYPE DIST2LAND LANDFALL IFLAG USA_AGENCY USA_ATCF_ID USA_LAT USA_LON USA_RECORD USA_STATUS USA_WIND USA_PRES USA_SSHS USA_R34_NE USA_R34_SE USA_R34_SW USA_R34_NW USA_R50_NE USA_R50_SE USA_R50_SW USA_R50_NW USA_R64_NE USA_R64_SE USA_R64_SW USA_R64_NW USA_POCI USA_ROCI USA_RMW USA_EYE TOKYO_LAT TOKYO_LON TOKYO_GRADE TOKYO_WIND TOKYO_PRES TOKYO_R50_DIR TOKYO_R50_LONG TOKYO_R50_SHORT TOKYO_R30_DIR TOKYO_R30_LONG TOKYO_R30_SHORT TOKYO_LAND CMA_LAT CMA_LON CMA_CAT CMA_WIND CMA_PRES HKO_LAT HKO_LON HKO_CAT HKO_WIND HKO_PRES NEWDELHI_LAT NEWDELHI_LON NEWDELHI_GRADE NEWDELHI_WIND NEWDELHI_PRES NEWDELHI_CI NEWDELHI_DP NEWDELHI_POCI REUNION_LAT REUNION_LON REUNION_TYPE REUNION_WIND REUNION_PRES REUNION_TNUM REUNION_CI REUNION_RMW REUNION_R34_NE REUNION_R34_SE REUNION_R34_SW REUNION_R34_NW REUNION_R50_NE REUNION_R50_SE REUNION_R50_SW REUNION_R50_NW REUNION_R64_NE REUNION_R64_SE REUNION_R64_SW REUNION_R64_NW BOM_LAT BOM_LON BOM_TYPE BOM_WIND BOM_PRES BOM_TNUM BOM_CI BOM_RMW BOM_R34_NE BOM_R34_SE BOM_R34_SW BOM_R34_NW BOM_R50_NE BOM_R50_SE BOM_R50_SW BOM_R50_NW BOM_R64_NE BOM_R64_SE BOM_R64_SW BOM_R64_NW BOM_ROCI BOM_POCI BOM_EYE BOM_POS_METHOD BOM_PRES_METHOD NADI_LAT NADI_LON NADI_CAT NADI_WIND NADI_PRES WELLINGTON_LAT WELLINGTON_LON WELLINGTON_WIND WELLINGTON_PRES DS824_LAT DS824_LON DS824_STAGE DS824_WIND DS824_PRES TD9636_LAT TD9636_LON TD9636_STAGE TD9636_WIND TD9636_PRES TD9635_LAT TD9635_LON TD9635_WIND TD9635_PRES TD9635_ROCI NEUMANN_LAT NEUMANN_LON NEUMANN_CLASS NEUMANN_WIND NEUMANN_PRES MLC_LAT MLC_LON MLC_CLASS MLC_WIND MLC_PRES USA_GUST BOM_GUST BOM_GUST_PER REUNION_GUST REUNION_GUST_PER USA_SEAHGT USA_SEARAD_NE USA_SEARAD_SE USA_SEARAD_SW USA_SEARAD_NW STORM_SPEED STORM_DIR
2010298S09087 2011 76 SI MM NOT_NAMED 2010-10-25 00:00:00 NR -9.20000 87.0000 main 1562 1562 O_____________ jtwc_sh SH012011 -9.20000 87.0000 DB 15 1010 -3 2 161
2010298S09087 2011 76 SI MM NOT_NAMED 2010-10-25 03:00:00 NR -9.31249 87.0300 main 1568 1568 P_____________ SH012011 -9.31249 87.0300 DB 17 1008 -3 2 172
2010298S09087 2011 76 SI MM NOT_NAMED 2010-10-25 06:00:00 NR -9.40000 87.0000 main 1574 1574 O_____________ jtwc_sh SH012011 -9.40000 87.0000 DB 20 1007 -3 2 228
2010298S09087 2011 76 SI MM NOT_NAMED 2010-10-25 09:00:00 NR -9.45001 86.8725 main 1589 1589 P_____________ SH012011 -9.45001 86.8725 DB 22 1005 -3 3 251
2010298S09087 2011 76 SI MM NOT_NAMED 2010-10-25 12:00:00 TS -9.50000 86.7000 main 1608 1608 O_____________ jtwc_sh SH012011 -9.50000 86.7000 TD 25 1004 -1 3 246
2010298S09087 2011 76 SI MM NOT_NAMED 2010-10-25 15:00:00 TS -9.59249 86.5500 main 1623 1623 P_____________ SH012011 -9.59249 86.5500 TD 27 1002 -1 4 236
2010298S09087 2011 76 SI MM NOT_NAMED 2010-10-25 18:00:00 TS -9.70000 86.4000 main 1648 1648 O_____________ jtwc_sh SH012011 -9.70000 86.4000 TD 30 1000 -1 1008 150 45 4 241
2010298S09087 2011 76 SI MM NOT_NAMED 2010-10-25 21:00:00 TS -9.77751 86.2125 main 1672 1672 P_____________ SH012011 -9.77751 86.2125 TD 30 1000 -1 1008 150 45 4 236
2010298S09087 2011 76 SI MM NOT_NAMED 2010-10-26 00:00:00 TS -9.90000 86.1000 main 1688 1688 O_____________ jtwc_sh SH012011 -9.90000 86.1000 TD 30 1000 -1 1008 150 45 4 186
2010298S09087 2011 76 SI MM NOT_NAMED 2010-10-26 03:00:00 TS -10.1275 86.1699 main 1690 1690 P_____________ SH012011 -10.1275 86.1699 TD 30 1000 -1 1008 160 45 5 158
2010298S09087 2011 76 SI MM NOT_NAMED 2010-10-26 06:00:00 TS -10.4000 86.3000 main 1700 1697 O_____________ jtwc_sh SH012011 -10.4000 86.3000 TD 30 1000 -1 1008 170 45 6 158
2010298S09087 2011 76 SI MM NOT_NAMED 2010-10-26 09:00:00 TS -10.6575 86.3875 main 1710 1710 P_____________ SH012011 -10.6575 86.3875 TD 32 998 -1 1007 172 40 5 169
2010298S09087 2011 76 SI MM NOT_NAMED 2010-10-26 12:00:00 TS -10.9000 86.4000 main 1723 1723 O_____________ jtwc_sh SH012011 -10.9000 86.4000 TS 35 996 0 1007 175 35 5 192
2010298S09087 2011 76 SI MM NOT_NAMED 2010-10-26 15:00:00 TS -11.1000 86.2875 main 1745 1745 P_____________ SH012011 -11.1000 86.2875 TS 35 996 0 1007 175 35 5 216
2010298S09087 2011 76 SI MM NOT_NAMED 2010-10-26 18:00:00 TS -11.3000 86.1000 main 1776 1776 O_____________ jtwc_sh SH012011 -11.3000 86.1000 TS 35 996 0 1008 175 35 6 219
2010298S09087 2011 76 SI MM NOT_NAMED 2010-10-26 21:00:00 TS -11.5425 85.9150 main 1807 1807 P_____________ SH012011 -11.5425 85.9150 TS 35 996 0 1008 175 35 6 218
2010298S09087 2011 76 SI MM NOT_NAMED 2010-10-27 00:00:00 TS -11.8000 85.7000 main 1844 1844 O_____________ jtwc_sh SH012011 -11.8000 85.7000 TS 35 996 0 1008 175 35 7 220
2010298S09087 2011 76 SI MM NOT_NAMED 2010-10-27 03:00:00 TS -12.0575 85.4650 main 1882 1882 P_____________ SH012011 -12.0575 85.4650 TS 35 996 0 1008 175 35 7 224
2010298S09087 2011 76 SI MM NOT_NAMED 2010-10-27 06:00:00 TS -12.3000 85.2000 main 1921 1921 O_____________ jtwc_sh SH012011 -12.3000 85.2000 TS 35 996 0 1008 175 35 7 229
2010298S09087 2011 76 SI MM NOT_NAMED 2010-10-27 09:00:00 TS -12.5224 84.9225 main 1961 1961 P_____________ SH012011 -12.5224 84.9225 TS 35 996 0 1007 172 37 7 236
2010298S09087 2011 76 SI MM NOT_NAMED 2010-10-27 12:00:00 TS -12.7000 84.6000 main 2000 2000 O_____________ jtwc_sh SH012011 -12.7000 84.6000 TS 35 996 0 1007 170 40 7 247
2010298S09087 2011 76 SI MM NOT_NAMED 2010-10-27 15:00:00 TS -12.8075 84.2224 main 2042 2042 P_____________ SH012011 -12.8075 84.2224 TS 32 998 -1 1007 170 40 8 256
2010298S09087 2011 76 SI MM NOT_NAMED 2010-10-27 18:00:00 TS -12.9000 83.8000 main 2084 2084 O_____________ jtwc_sh SH012011 -12.9000 83.8000 TD 30 1000 -1 1007 170 40 9 254
2010298S09087 2011 76 SI MM NOT_NAMED 2010-10-27 21:00:00 TS -13.0424 83.3650 main 2125 2125 P_____________ SH012011 -13.0424 83.3650 TD 30 1000 -1 1007 170 40 9 251
2010298S09087 2011 76 SI MM NOT_NAMED 2010-10-28 00:00:00 TS -13.2000 82.9000 main 2154 2152 O_____________ jtwc_sh SH012011 -13.2000 82.9000 TD 30 1000 -1 1007 170 40 10 252
2010298S09087 2011 76 SI MM NOT_NAMED 2010-10-28 03:00:00 TS -13.3424 82.4074 main 2160 2160 P_____________ SH012011 -13.3424 82.4074 TD 27 1002 -1 1007 170 40 10 253
2010298S09087 2011 76 SI MM NOT_NAMED 2010-10-28 06:00:00 TS -13.5000 81.9000 main 2178 2177 O_____________ jtwc_sh SH012011 -13.5000 81.9000 TD 25 1004 -1 1007 170 40 10 251
2010298S09087 2011 76 SI MM NOT_NAMED 2010-10-28 09:00:00 TS -13.6774 81.4073 main 2197 2196 P_____________ SH012011 -13.6774 81.4073 TD 25 1004 -1 11 248
2010298S09087 2011 76 SI MM NOT_NAMED 2010-10-28 12:00:00 TS -13.9000 80.9000 main 2218 2218 O_____________ jtwc_sh SH012011 -13.9000 80.9000 TD 25 1004 -1 11 242
2010298S09087 2011 76 SI MM NOT_NAMED 2010-10-28 15:00:00 TS -14.2074 80.3651 main 2251 2251 P_____________ SH012011 -14.2074 80.3651 TD 25 1004 -1 12 241
2010298S09087 2011 76 SI MM NOT_NAMED 2010-10-28 18:00:00 TS -14.5000 79.8000 main 2287 2287 O_____________ jtwc_sh SH012011 -14.5000 79.8000 TD 25 1004 -1 12 247
2010298S09087 2011 76 SI MM NOT_NAMED 2010-10-28 21:00:00 TS -14.6875 79.1999 main 2313 2287 P_____________ SH012011 -14.6875 79.1999 TD 25 1004 -1 12 256
2010298S09087 2011 76 SI MM NOT_NAMED 2010-10-29 00:00:00 TS -14.8000 78.6000 main 2287 2233 O_____________ jtwc_sh SH012011 -14.8000 78.6000 TD 25 1004 -1 11 261
2010298S09087 2011 76 SI MM NOT_NAMED 2010-10-29 03:00:00 TS -14.8723 78.0424 main 2223 2172 P_____________ SH012011 -14.8723 78.0424 TD 25 1004 -1 11 265
2010298S09087 2011 76 SI MM NOT_NAMED 2010-10-29 06:00:00 TS -14.9000 77.5000 main 2172 2121 O_____________ jtwc_sh SH012011 -14.9000 77.5000 TD 25 1004 -1 11 268
2010298S09087 2011 76 SI MM NOT_NAMED 2010-10-29 09:00:00 TS -14.9149 76.9425 main 2111 2060 P_____________ SH012011 -14.9149 76.9425 TD 25 1004 -1 11 270
2010298S09087 2011 76 SI MM NOT_NAMED 2010-10-29 12:00:00 TS -14.9000 76.4000 main 2060 2010 O_____________ jtwc_sh SH012011 -14.9000 76.4000 TD 25 1004 -1 10 274
2010298S09087 2011 76 SI MM NOT_NAMED 2010-10-29 15:00:00 TS -14.8498 75.8924 main 2013 1963 P_____________ SH012011 -14.8498 75.8924 TD 22 1005 -1 10 276
2010298S09087 2011 76 SI MM NOT_NAMED 2010-10-29 18:00:00 NR -14.8000 75.4000 main 1963 1913 O_____________ jtwc_sh SH012011 -14.8000 75.4000 DB 20 1007 -3 10 273
2010298S09087 2011 76 SI MM NOT_NAMED 2010-10-29 21:00:00 NR -14.7924 74.9001 main 1913 1863 P_____________ SH012011 -14.7924 74.9001 DB 20 1007 -3 10 270
2010298S09087 2011 76 SI MM NOT_NAMED 2010-10-30 00:00:00 NR -14.8000 74.4000 main 1863 1813 O_____________ jtwc_sh SH012011 -14.8000 74.4000 DB 20 1007 -3 10 270
2010298S09087 2011 76 SI MM NOT_NAMED 2010-10-30 03:00:00 NR -14.7999 73.9000 main 1813 1763 P_____________ SH012011 -14.7999 73.9000 DB 20 1007 -3 10 270
2010298S09087 2011 76 SI MM NOT_NAMED 2010-10-30 06:00:00 NR -14.8000 73.4000 main 1763 1714 O_____________ jtwc_sh SH012011 -14.8000 73.4000 DB 20 1007 -3 10 270
2010298S09087 2011 76 SI MM NOT_NAMED 2010-10-30 09:00:00 NR -14.8074 72.8926 main 1714 1664 P_____________ SH012011 -14.8074 72.8926 DB 17 1008 -3 10 270
2010298S09087 2011 76 SI MM NOT_NAMED 2010-10-30 12:00:00 NR -14.8000 72.4000 main 1664 1625 O_____________ jtwc_sh SH012011 -14.8000 72.4000 DB 15 1010 -3 9 272
2010298S09087 2011 76 SI MM NOT_NAMED 2010-10-30 15:00:00 NR -14.7724 71.9351 main 1615 1581 P_____________ SH012011 -14.7724 71.9351 DB 15 1010 -3 9 277
2010298S09087 2011 76 SI MM NOT_NAMED 2010-10-30 18:00:00 NR -14.7000 71.5000 main 1581 1547 O_____________ jtwc_sh SH012011 -14.7000 71.5000 DB 15 1010 -3 8 284
2010298S09087 2011 76 SI MM NOT_NAMED 2010-10-30 21:00:00 NR -14.5649 71.0925 main 1547 1519 P_____________ SH012011 -14.5649 71.0925 DB 15 1010 -3 8 291
2010298S09087 2011 76 SI MM NOT_NAMED 2010-10-31 00:00:00 NR -14.4000 70.7000 main 1519 1486 O_____________ jtwc_sh SH012011 -14.4000 70.7000 DB 15 1010 -3 8 293
2010298S09087 2011 76 SI MM NOT_NAMED 2010-10-31 03:00:00 NR -14.2452 70.3024 main 1491 1459 P_____________ SH012011 -14.2452 70.3024 DB 15 1010 -3 8 291
2010298S09087 2011 76 SI MM NOT_NAMED 2010-10-31 06:00:00 NR -14.1000 69.9000 main 1459 O_____________ jtwc_sh SH012011 -14.1000 69.9000 DB 15 1010 -3 8 290

IBTrACS Databaseについて

本データベースは、米国NOAAが公開する1842年以降の世界の熱帯低気圧のベストトラックデータアーカイブInternational Best Track Archive for Climate Stewardship (IBTrACS)を、ウェブで閲覧しやすい形式に変換したものです。

最終更新日:2021-10-08